Diego Luna

Olheiro - Mitre
3 Abr 2027
Sábado
Processo

Personalidade

Adaptabilidade (13) Ambição (9) Controvérsia (11) Lealdade (15) Pressão (6) Profissionalismo (2) Espírito Esportivo (13) Temperamento (1)

Perfil

Estilo de Treinamento Democrático
Licença Continental C
Determinação 7
Gestão de Pessoas 4
Motivação 4
Disciplina 5
Satisfação no Trabalho
100%
Fadiga
0%
Função Olheiro
Salário 5.0K p/s
Contrato 14.03.2028

Desempenho

Comportamento Bom
Eficácia do Treinamento
15%
Desenvolvimento do Jogador
5%
Prevenção de Lesões
30%
Implementação Tática
15%

Eventos Recentes

Participou de uma reunião de recrutamento 7d atrás
Participou de uma reunião de recrutamento 14d atrás
Participou de uma reunião de recrutamento 21d atrás
Participou de uma reunião de recrutamento 28d atrás
Participou de uma reunião de recrutamento 35d atrás
Participou de uma reunião de recrutamento 42d atrás
Participou de uma reunião de recrutamento 49d atrás
Participou de uma reunião de recrutamento 56d atrás

Monitorando agora

114
Jogador Clube Status Habilidade Confiança Observado Última observação Último voto
Jorge Espejo Universidad de Concepcion Ativo 110 / 109 40% 3 27.11.2026 -
Facundo Ardiles Estudiantes Ativo 103 / 100 40% 2 27.11.2026 -
Federico Bisanz Atlanta Ativo 105 / 105 40% 1 26.11.2026 -
Facundo Taborda Racing Ativo 107 / 99 40% 1 26.11.2026 -
Santiago Asprilla Envigado Ativo 92 / 96 40% 1 26.11.2026 -
David Agudelo Depor Ativo 112 / 103 40% 1 26.11.2026 -
Luciano Jachfe Nueva Chicago Ativo 127 / 111 40% 1 24.11.2026 -
Agustín Lastra Estudiantes Ativo 118 / 105 40% 1 24.11.2026 -
Gastón Espósito Güemes Ativo 115 / 113 40% 2 21.11.2026 -
Luiz Artigas Ativo 77 / 94 40% 2 21.11.2026 -
Enzo Silcan Almagro Ativo 119 / 102 40% 1 21.11.2026 Mais informações
Mauro Casoli Talleres Ativo 91 / 96 40% 1 21.11.2026 -
Emiliano González Almagro Ativo 103 / 120 40% 1 19.11.2026 -
Fabián Palomino Ayacucho Ativo 91 / 72 40% 1 19.11.2026 -
Rafael Hornos Liverpool Montevideo Ativo 93 / 105 40% 1 18.11.2026 -
Aldair Ccorahua Sport Huancayo Ativo 77 / 94 40% 1 17.11.2026 -
Juan Manuel Jorge Defensor Sporting Ativo 107 / 114 40% 2 15.11.2026 -
Renzo Reynaga Patronato Ativo 122 / 112 40% 2 15.11.2026 Mais informações
Franco Rivasseau Patronato Ativo 110 / 103 40% 2 12.11.2026 -
Brian Farioli Estudiantes Rejeitado 111 / 113 40% 2 11.11.2026 Mais informações
Fabricio Hass Central Norte Ativo 115 / 117 40% 2 10.11.2026 -
Milton Gerez Güemes Ativo 109 / 96 40% 1 10.11.2026 -
Elías Contreras Morón Ativo 122 / 108 40% 1 10.11.2026 Mais informações
Axel Guerra Chacarita Juniors Ativo 105 / 116 40% 2 09.11.2026 -
David Gallardo Gimnasia y Esgrima Ativo 113 / 122 40% 1 09.11.2026 Mais informações
Tilman Palacios America de Cali Ativo 121 / 104 40% 2 05.11.2026 Mais informações
Rocco Ríos Novo Inter Miami CF Ativo 112 / 122 40% 1 05.11.2026 -
Franco Malagueño Colegiales Ativo 107 / 121 40% 1 05.11.2026 -
Lucio Castillo Colegiales Ativo 105 / 114 40% 1 04.11.2026 -
Jano Coronel Quilmes Ativo 109 / 118 40% 1 04.11.2026 Mais informações
Ulises Vera Quilmes Ativo 97 / 120 40% 1 01.11.2026 -
Enzo Hoyos Ferro Carril Oeste Ativo 112 / 113 40% 1 31.10.2026 -
Cristhofer Mesías Universidad de Concepcion Ativo 100 / 105 40% 1 31.10.2026 -
Agustín Ojeda Chaco For Ever Ativo 99 / 106 40% 1 30.10.2026 -
Valentin Pereyra Patronato Ativo 96 / 118 40% 1 30.10.2026 -
Maximiliano Ribero Central Norte Ativo 116 / 119 40% 1 29.10.2026 -
Gastón Mansilla Maipú Ativo 128 / 106 40% 1 29.10.2026 -
José Rondón Zulia Ativo 101 / 85 40% 1 26.10.2026 -
Miguel Acosta Argentinos Juniors Ativo 123 / 118 40% 2 22.10.2026 -
Facundo Vila Estudiantes Ativo 101 / 111 40% 1 22.10.2026 -
Víctor Rivero Aragua Ativo 83 / 104 40% 1 18.10.2026 -
Gonzalo Aguirre Cienciano Ativo 86 / 95 40% 1 17.10.2026 -
Facundo Silvestre Uruguay Montevideo Ativo 99 / 101 40% 1 17.10.2026 -
Diego Carreño O'Higgins Ativo 87 / 80 40% 1 15.10.2026 -
Lukas González Cerro Largo Ativo 77 / 85 40% 1 12.10.2026 -
Santiago Gutiérrez New York City Ativo 97 / 91 40% 1 12.10.2026 -
Mateo Clemente San Lorenzo Ativo 120 / 115 40% 1 11.10.2026 -
Tobías Leiva Estudiantes Ativo 122 / 112 40% 1 10.10.2026 -
Facundo Castet Colón Ativo 104 / 102 40% 1 07.10.2026 -
Lucas Chiozza Alvarado Ativo 121 / 113 40% 1 07.10.2026 -
Thiago Calone All Boys Ativo 128 / 104 40% 1 06.10.2026 -
Ricardo Bettocchi UTC Ativo 77 / 79 40% 2 04.10.2026 -
Matías Sosa Arsenal Ativo 126 / 113 40% 1 04.10.2026 -
Luis Miranda Llaneros Ativo 127 / 123 40% 1 04.10.2026 -
Nelson Gauto Sportivo Trinidense Ativo 89 / 116 40% 1 03.10.2026 -
Andres Lioi Chaco For Ever Ativo 105 / 95 40% 1 01.10.2026 -
Yulián Montaño Depor Ativo 80 / 85 40% 1 01.10.2026 -
Francisco Vergara Gimnasia La Plata Ativo 100 / 101 40% 1 01.10.2026 -
Héber García Portuguesa Ativo 101 / 102 40% 2 28.09.2026 -
Thiago López Almagro Ativo 115 / 117 40% 1 27.09.2026 -
Braian Aranda Agropecuario Argentino Ativo 96 / 111 40% 1 27.09.2026 -
Iván Chaves Patronato Ativo 114 / 100 40% 1 27.09.2026 -
Nicolás Retamar Ferro Carril Oeste Ativo 98 / 118 40% 2 25.09.2026 -
Mauro Martín Progreso Ativo 99 / 110 40% 1 25.09.2026 -
Ignacio Yepez Cerrito Ativo 114 / 113 40% 4 24.09.2026 -
David Veliz Güemes Ativo 122 / 104 40% 1 24.09.2026 -
Fernando Bersano Madryn Ativo 118 / 126 40% 1 23.09.2026 -
Rodolfo Rodríguez River Plate Ativo 74 / 72 40% 1 21.09.2026 -
Gastón Fernández Chacarita Juniors Ativo 105 / 106 40% 1 20.09.2026 -
Francisco Mongelos Sportivo Luqueno Ativo 101 / 90 40% 2 19.09.2026 -
José Luis Caicedo Barranquilla Ativo 132 / 130 40% 1 19.09.2026 -
Eduardo Armenta Orlando City Ativo 112 / 120 40% 1 19.09.2026 -
Reynaldo Fontalvo Real Cartagena Ativo 98 / 104 40% 1 19.09.2026 -
Róyner Benítez Aguilas Doradas Ativo 98 / 125 40% 2 17.09.2026 -
Facundo Pérez Juventud Ativo 111 / 108 40% 2 13.09.2026 -
Eduardo Villanueva Colo-Colo Ativo 90 / 95 40% 1 11.09.2026 -
Cristian Barrios Valledupar Ativo 105 / 110 40% 1 11.09.2026 -
Franco Fagúndez Estudiantes Ativo 127 / 110 40% 1 09.09.2026 -
Jean Martínez Rentistas Ativo 87 / 90 40% 1 09.09.2026 -
Esteven Salguero Patriotas Ativo 108 / 105 40% 1 06.09.2026 -
Brian Calderara Chacarita Juniors Ativo 113 / 128 40% 1 05.09.2026 -
Ángel Espínola Sportivo Luqueno Ativo 106 / 108 40% 1 04.09.2026 -
Johan Portilla Once Caldas Ativo 86 / 93 40% 1 02.09.2026 -
Brian Mancini Rampla Juniors Ativo 89 / 81 40% 1 02.09.2026 -
Carlos Baltazar Puebla Ativo 121 / 99 40% 2 28.08.2026 -
Julián Pou Montevideo City Torque Ativo 114 / 106 40% 1 28.08.2026 -
Guido Sosa Atenas Ativo 100 / 102 40% 1 27.08.2026 -
Juan Pablo Otálvaro Once Caldas Ativo 84 / 106 40% 1 27.08.2026 -
Gonzalo de Mello Liverpool Montevideo Ativo 99 / 112 40% 1 26.08.2026 -
Moisés Gallo Zulia Ativo 91 / 90 40% 1 25.08.2026 -
Mathías Bernatene Liverpool Montevideo Ativo 96 / 89 40% 1 24.08.2026 -
Lucas Arzamendia Atenas Ativo 85 / 111 40% 1 23.08.2026 -
Álvaro Meléndez Real Cartagena Ativo 112 / 116 40% 1 21.08.2026 -
Daniel Mantilla Llaneros Ativo 126 / 117 40% 2 19.08.2026 -
Laureano Rodríguez San Martín Ativo 111 / 114 30% 1 / 1m 19.08.2026 -
Santiago Viera Cerrito Ativo 102 / 110 40% 1 19.08.2026 -
Miguel Silva Carabobo Ativo 109 / 119 40% 1 16.08.2026 -
Roameth Romaña Llaneros Ativo 83 / 91 40% 1 16.08.2026 -
Lucas Machado Defensor Sporting Ativo 114 / 114 40% 1 15.08.2026 -
Mario Sanabria Chacarita Juniors Ativo 106 / 98 40% 1 14.08.2026 -
Tomás Soto Envigado Ativo 75 / 92 40% 1 14.08.2026 -
Felipe San Juan Gimnasia y Esgrima Ativo 109 / 98 40% 1 14.08.2026 -
Javier Bustillos Los Andes Ativo 90 / 100 40% 1 14.08.2026 -
Kevin Lezcano Guarani Ativo 75 / 89 40% 1 13.08.2026 -
Hugo Gaona Sportivo Luqueno Ativo 72 / 96 40% 1 13.08.2026 -
Owen Falconis Cerrito Ativo 110 / 102 40% 1 09.08.2026 -
Matías López Guarani Ativo 102 / 98 40% 1 08.08.2026 -
Sebastián Tormo Deportivo Maldonado Ativo 85 / 91 40% 1 08.08.2026 -
Javier Mena Aguilas Doradas Ativo 120 / 109 40% 1 06.08.2026 -
Jeisson Castro Tigres Ativo 99 / 90 40% 1 04.08.2026 -
Facundo Muñoa Boston River Ativo 100 / 97 40% 1 03.08.2026 -
Nicolás Mallet Rentistas Ativo 115 / 92 40% 1 02.08.2026 -
Jeremy Canela Sport Huancayo Ativo 116 / 104 40% 1 02.08.2026 -
John Méndez Deportivo Pasto Ativo 92 / 113 40% 1 01.08.2026 -